Time;durP1;ratioP1;P1;durP2;ratioP2;P2;SDS_P1;SDS_P2;PMS_P1;PMS_P2;Temp;Humidity;BMP_temperature;BMP_pressure;BME280_temperature;BME280_humidity;BME280_pressure;Samples;Min_cycle;Max_cycle;Signal;HPM_P1;HPM_P2
2023/03/14 00:02:11;;;;;;;2.28;1.15;;;;;;;11.45;100.00;98635.63;6302879;28;20049;-74
2023/03/14 00:05:13;;;;;;;1.25;1.00;;;;;;;11.38;100.00;98642.41;6302484;28;20048;-73
2023/03/14 00:08:15;;;;;;;3.63;1.45;;;;;;;11.41;100.00;98626.34;6302547;28;20056;-74
2023/03/14 00:11:19;;;;;;;9.82;1.58;;;;;;;11.24;100.00;98606.84;6294272;28;20048;-74
2023/03/14 00:14:20;;;;;;;3.40;1.48;;;;;;;11.18;100.00;98589.81;6302204;28;20345;-74
2023/03/14 00:17:22;;;;;;;6.18;1.40;;;;;;;11.04;100.00;98592.88;6301933;28;20044;-74
2023/03/14 00:20:24;;;;;;;4.18;0.90;;;;;;;11.00;100.00;98586.22;6300784;28;20048;-72
2023/03/14 00:23:27;;;;;;;5.20;0.85;;;;;;;11.08;100.00;98586.38;6302241;28;20048;-74
2023/03/14 00:26:29;;;;;;;2.25;1.05;;;;;;;11.19;100.00;98601.16;6301758;28;20045;-74
2023/03/14 00:29:30;;;;;;;1.35;0.80;;;;;;;11.21;100.00;98598.41;6301918;28;20056;-74
2023/03/14 00:32:31;;;;;;;1.38;0.90;;;;;;;11.20;100.00;98615.16;6294311;28;20060;-74
2023/03/14 00:35:33;;;;;;;1.73;0.60;;;;;;;11.13;100.00;98633.28;6301934;28;20044;-74
2023/03/14 00:38:37;;;;;;;2.03;1.00;;;;;;;11.10;100.00;98639.63;6301589;28;20048;-74
2023/03/14 00:41:38;;;;;;;4.47;1.10;;;;;;;11.03;100.00;98641.13;6301958;28;20076;-75
2023/03/14 00:44:39;;;;;;;5.15;1.33;;;;;;;10.97;100.00;98641.69;6301668;28;20051;-74
2023/03/14 00:47:45;;;;;;;2.03;0.70;;;;;;;10.97;100.00;98639.06;6299440;28;20568;-74
2023/03/14 00:50:47;;;;;;;1.20;0.75;;;;;;;10.97;100.00;98639.06;6301598;28;20462;-74
2023/03/14 00:53:50;;;;;;;3.25;0.90;;;;;;;10.96;100.00;98642.66;6301312;28;20337;-74
2023/03/14 00:56:51;;;;;;;2.78;1.17;;;;;;;10.92;100.00;98636.00;6301282;28;20036;-75
2023/03/14 00:59:53;;;;;;;3.53;1.05;;;;;;;10.97;100.00;98636.44;6301151;28;20049;-74
2023/03/14 01:02:54;;;;;;;1.77;1.05;;;;;;;10.97;100.00;98612.78;6301190;28;20044;-75
2023/03/14 01:06:07;;;;;;;1.30;0.85;;;;;;;10.97;100.00;98620.66;6300898;28;20037;-74
2023/03/14 01:09:10;;;;;;;2.92;0.73;;;;;;;10.91;100.00;98622.03;6299702;28;20045;-74
2023/03/14 01:12:11;;;;;;;1.63;0.77;;;;;;;10.90;100.00;98606.41;6301049;28;20048;-74
2023/03/14 01:15:13;;;;;;;3.72;0.98;;;;;;;10.87;100.00;98602.25;6300897;28;20044;-74
2023/03/14 01:18:14;;;;;;;0.98;0.73;;;;;;;10.86;100.00;98611.13;6300823;28;20047;-74
2023/03/14 01:21:17;;;;;;;1.83;0.60;;;;;;;10.96;100.00;98594.53;6292514;28;20352;-74
2023/03/14 01:24:20;;;;;;;5.07;0.93;;;;;;;10.98;100.00;98582.88;6300620;28;20048;-74
2023/03/14 01:27:21;;;;;;;0.57;0.57;;;;;;;10.98;100.00;98598.66;6300408;28;20036;-74
2023/03/14 01:30:23;;;;;;;1.50;0.80;;;;;;;11.00;100.00;98604.63;6299798;28;20082;-74
2023/03/14 01:33:24;;;;;;;4.00;1.35;;;;;;;10.97;100.00;98596.19;6299702;28;20459;-74
2023/03/14 01:36:25;;;;;;;3.42;0.80;;;;;;;10.96;100.00;98584.00;6300137;28;20045;-74
2023/03/14 01:39:28;;;;;;;2.42;1.00;;;;;;;10.99;100.00;98588.97;6300354;28;20181;-74
2023/03/14 01:42:30;;;;;;;2.28;0.88;;;;;;;10.97;100.00;98590.91;6300530;28;20057;-74
2023/03/14 01:46:08;;;;;;;2.30;1.15;;;;;;;10.96;100.00;98584.00;6300065;28;20044;-74
2023/03/14 01:49:18;;;;;;;4.90;0.80;;;;;;;10.89;100.00;98563.53;6261935;28;20336;-74
2023/03/14 01:52:25;;;;;;;1.30;1.13;;;;;;;10.89;100.00;98562.69;6300145;28;20345;-74
2023/03/14 01:55:28;;;;;;;2.80;1.48;;;;;;;10.92;100.00;98544.88;6300112;28;20206;-74
2023/03/14 01:58:34;;;;;;;1.65;0.95;;;;;;;10.86;100.00;98548.06;6299892;28;20048;-74
2023/03/14 02:01:36;;;;;;;1.63;0.60;;;;;;;10.80;100.00;98561.72;6299165;28;20044;-74
2023/03/14 02:04:39;;;;;;;3.47;0.75;;;;;;;10.83;100.00;98550.94;6298722;28;20056;-74
2023/03/14 02:07:47;;;;;;;1.02;0.90;;;;;;;10.80;100.00;98559.09;6299761;28;20429;-74
2023/03/14 02:10:50;;;;;;;0.57;0.47;;;;;;;10.79;100.00;98559.22;6299853;28;20044;-74
2023/03/14 02:13:52;;;;;;;4.40;0.98;;;;;;;10.79;100.00;98567.13;6299862;28;20345;-74
2023/03/14 02:16:54;;;;;;;5.88;0.80;;;;;;;10.75;100.00;98570.97;6299517;28;20056;-74
2023/03/14 02:20:08;;;;;;;5.00;0.80;;;;;;;10.71;100.00;98586.19;6299737;28;20387;-74
2023/03/14 02:23:10;;;;;;;2.17;0.98;;;;;;;10.72;100.00;98584.38;6299804;28;20051;-74
2023/03/14 02:26:19;;;;;;;2.55;0.60;;;;;;;10.76;100.00;98580.53;6299584;28;20052;-74
2023/03/14 02:29:22;;;;;;;0.68;0.68;;;;;;;10.80;100.00;98576.66;6299420;28;20051;-73
2023/03/14 02:32:25;;;;;;;0.90;0.57;;;;;;;10.83;100.00;98579.03;6275910;28;20052;-74
2023/03/14 02:35:30;;;;;;;2.22;0.70;;;;;;;10.82;100.00;98574.75;6299427;28;20136;-74
2023/03/14 02:38:38;;;;;;;2.05;0.80;;;;;;;10.85;100.00;98579.69;6299392;28;20052;-74
2023/03/14 02:41:39;;;;;;;0.63;0.43;;;;;;;10.91;100.00;98566.03;6302504;28;20345;-74
2023/03/14 02:44:54;;;;;;;1.52;0.70;;;;;;;10.93;100.00;98566.72;6304692;28;20044;-74
2023/03/14 02:48:00;;;;;;;2.35;0.75;;;;;;;10.90;100.00;98559.94;6304341;28;20036;-74
2023/03/14 02:51:02;;;;;;;4.05;0.95;;;;;;;10.93;100.00;98556.19;6304548;28;20059;-74
2023/03/14 02:54:04;;;;;;;5.20;0.60;;;;;;;10.91;100.00;98555.53;6304259;28;20345;-74
2023/03/14 02:57:05;;;;;;;2.05;0.70;;;;;;;10.91;100.00;98560.78;6304254;28;20045;-73
2023/03/14 03:00:10;;;;;;;2.58;0.73;;;;;;;10.99;100.00;98558.28;6304219;28;20044;-74
2023/03/14 03:03:11;;;;;;;3.00;1.20;;;;;;;10.96;100.00;98552.47;6303238;28;20044;-74
2023/03/14 03:06:13;;;;;;;3.53;0.90;;;;;;;10.94;100.00;98547.34;6303783;28;20052;-73
2023/03/14 03:09:14;;;;;;;3.55;0.73;;;;;;;10.92;100.00;98551.91;6303795;28;20045;-74
2023/03/14 03:12:16;;;;;;;4.32;0.95;;;;;;;10.94;100.00;98549.97;6295934;28;20047;-74
2023/03/14 03:15:18;;;;;;;1.65;0.68;;;;;;;10.96;100.00;98541.97;6303766;28;20048;-74
2023/03/14 03:18:20;;;;;;;5.97;1.55;;;;;;;11.01;100.00;98539.75;6295780;28;20048;-74
2023/03/14 03:21:23;;;;;;;2.20;0.75;;;;;;;10.95;100.00;98532.44;6303651;28;20059;-74
2023/03/14 03:24:26;;;;;;;2.45;0.77;;;;;;;10.93;100.00;98527.28;6302664;28;20318;-74
2023/03/14 03:27:27;;;;;;;3.63;0.98;;;;;;;11.02;100.00;98526.47;6278646;28;20056;-74
2023/03/14 03:30:30;;;;;;;6.65;1.02;;;;;;;10.94;100.00;98531.56;6286873;28;20384;-74
2023/03/14 03:33:31;;;;;;;8.27;1.48;;;;;;;10.90;100.00;98520.53;6297138;28;20053;-74
2023/03/14 03:36:32;;;;;;;0.60;0.55;;;;;;;10.74;100.00;98527.28;6284673;28;20404;-74
2023/03/14 03:39:33;;;;;;;0.75;0.70;;;;;;;10.56;100.00;98512.22;6286642;28;20048;-74
2023/03/14 03:42:36;;;;;;;1.38;1.00;;;;;;;10.37;100.00;98520.06;6299166;28;20071;-74
2023/03/14 03:45:38;;;;;;;1.48;0.57;;;;;;;10.28;100.00;98534.00;6302927;28;20056;-74
2023/03/14 03:48:40;;;;;;;1.90;1.00;;;;;;;10.21;100.00;98525.78;6300593;28;20048;-74
2023/03/14 03:51:42;;;;;;;0.57;0.50;;;;;;;10.12;100.00;98527.41;6302324;28;20111;-74
2023/03/14 03:54:43;;;;;;;2.10;0.95;;;;;;;10.09;100.00;98524.25;6303046;28;20044;-74
2023/03/14 03:57:44;;;;;;;1.05;0.60;;;;;;;10.00;100.00;98533.75;6302855;28;20043;-73
2023/03/14 04:00:47;;;;;;;1.67;0.60;;;;;;;9.94;100.00;98536.88;6303050;28;20049;-74
2023/03/14 04:03:48;;;;;;;5.20;0.80;;;;;;;9.85;100.00;98546.38;6294585;28;20051;-74
2023/03/14 04:06:49;;;;;;;3.33;0.88;;;;;;;9.78;100.00;98549.66;6302282;28;20060;-73
2023/03/14 04:09:51;;;;;;;2.40;0.70;;;;;;;9.76;100.00;98551.56;6302532;28;20048;-74
2023/03/14 04:12:52;;;;;;;1.58;0.65;;;;;;;9.71;100.00;98546.72;6302585;28;20071;-74
2023/03/14 04:15:56;;;;;;;1.27;0.82;;;;;;;9.74;100.00;98537.78;6302404;28;20156;-74
2023/03/14 04:18:58;;;;;;;2.60;0.30;;;;;;;9.70;100.00;98539.00;6302216;28;20349;-74
2023/03/14 04:21:59;;;;;;;0.30;0.30;;;;;;;9.61;100.00;98544.03;6302051;28;20475;-74
2023/03/14 04:25:02;;;;;;;3.88;0.50;;;;;;;9.58;100.00;98541.72;6299326;28;20402;-74
2023/03/14 04:28:07;;;;;;;1.58;0.57;;;;;;;9.49;100.00;98529.34;6302207;28;20055;-74
2023/03/14 04:31:12;;;;;;;1.27;0.80;;;;;;;9.48;100.00;98538.19;6284490;28;20174;-74
2023/03/14 04:34:13;;;;;;;0.43;0.43;;;;;;;9.39;100.00;98526.66;6281252;28;20052;-74
2023/03/14 04:37:14;;;;;;;2.55;0.80;;;;;;;9.33;100.00;98526.38;6265028;28;20033;-74
2023/03/14 04:40:16;;;;;;;4.65;0.60;;;;;;;9.29;100.00;98517.09;6257094;28;20045;-74
2023/03/14 04:43:17;;;;;;;2.90;0.45;;;;;;;9.22;100.00;98521.19;6259402;28;20044;-74
2023/03/14 04:46:20;;;;;;;1.40;0.40;;;;;;;9.12;100.00;98511.47;6279711;28;20044;-74
2023/03/14 04:49:21;;;;;;;3.20;0.60;;;;;;;9.15;100.00;98511.22;6272028;28;20052;-74
2023/03/14 04:52:23;;;;;;;3.45;1.02;;;;;;;9.08;100.00;98506.59;6284158;28;20047;-74
2023/03/14 04:55:24;;;;;;;2.10;1.13;;;;;;;9.07;100.00;98515.44;6280354;28;20041;-74
2023/03/14 04:58:26;;;;;;;0.95;0.40;;;;;;;9.04;100.00;98513.91;6282020;28;20674;-74
2023/03/14 05:01:28;;;;;;;1.50;0.70;;;;;;;9.07;100.00;98502.31;6281172;28;20051;-74
2023/03/14 05:04:32;;;;;;;0.55;0.45;;;;;;;9.11;100.00;98494.09;6274410;28;20044;-74
2023/03/14 05:07:34;;;;;;;0.80;0.50;;;;;;;9.01;100.00;98495.81;6273320;28;20067;-74
2023/03/14 05:10:35;;;;;;;0.32;0.22;;;;;;;9.01;100.00;98487.97;6281678;28;20482;-74
2023/03/14 05:13:36;;;;;;;0.35;0.35;;;;;;;8.96;100.00;98484.06;6280257;28;20049;-74
2023/03/14 05:16:39;;;;;;;5.15;0.70;;;;;;;8.92;100.00;98485.28;6281620;28;20052;-74
2023/03/14 05:19:40;;;;;;;2.28;0.77;;;;;;;8.87;100.00;98477.78;6278997;28;20048;-73
2023/03/14 05:22:42;;;;;;;1.38;1.02;;;;;;;8.86;100.00;98478.75;6282445;28;20118;-74
2023/03/14 05:25:44;;;;;;;1.60;0.50;;;;;;;8.78;100.00;98476.75;6279911;28;20047;-74
2023/03/14 05:28:45;;;;;;;0.88;0.63;;;;;;;8.79;100.00;98488.06;6283692;28;20047;-74
2023/03/14 05:31:48;;;;;;;2.05;0.85;;;;;;;8.83;100.00;98476.38;6292388;28;20051;-73
2023/03/14 05:34:49;;;;;;;1.88;1.38;;;;;;;8.82;100.00;98477.34;6300689;28;20052;-74
2023/03/14 05:37:50;;;;;;;0.95;0.68;;;;;;;8.78;100.00;98470.69;6300484;28;20041;-73
2023/03/14 05:40:52;;;;;;;3.03;0.80;;;;;;;8.81;100.00;98480.91;6300363;28;20052;-74
2023/03/14 05:43:53;;;;;;;3.05;0.70;;;;;;;8.78;100.00;98481.19;6300546;28;20056;-73
2023/03/14 05:46:56;;;;;;;8.27;1.20;;;;;;;8.80;100.00;98476.63;6299966;28;20044;-74
2023/03/14 05:49:57;;;;;;;7.00;1.50;;;;;;;8.79;100.00;98478.41;6298625;28;20049;-73
2023/03/14 05:52:58;;;;;;;2.92;1.25;;;;;;;8.93;100.00;98481.69;6300283;28;20428;-74
2023/03/14 05:56:00;;;;;;;3.60;0.85;;;;;;;8.99;100.00;98481.16;6300279;28;20041;-75
2023/03/14 05:59:03;;;;;;;6.93;1.70;;;;;;;8.94;100.00;98486.78;6300100;28;20043;-75
2023/03/14 06:02:05;;;;;;;7.07;1.00;;;;;;;8.95;100.00;98479.75;6293991;28;20460;-75
2023/03/14 06:05:08;;;;;;;7.07;1.40;;;;;;;8.97;100.00;98488.34;6275111;28;20040;-75
2023/03/14 06:08:09;;;;;;;3.13;1.60;;;;;;;9.07;100.00;98481.38;6275103;28;20049;-75
2023/03/14 06:11:11;;;;;;;4.68;1.35;;;;;;;9.05;100.00;98488.53;6275088;28;20045;-75
2023/03/14 06:14:12;;;;;;;8.65;1.77;;;;;;;9.03;100.00;98487.81;6275001;28;20041;-75
2023/03/14 06:17:15;;;;;;;1.38;1.05;;;;;;;9.04;100.00;98487.72;6282355;28;20045;-75
2023/03/14 06:20:16;;;;;;;3.25;1.20;;;;;;;9.10;100.00;98495.06;6295300;28;20052;-75
2023/03/14 06:23:18;;;;;;;2.33;0.88;;;;;;;9.11;100.00;98495.88;6300001;28;20048;-75
2023/03/14 06:26:19;;;;;;;1.70;1.02;;;;;;;9.07;100.00;98489.22;6299524;28;20048;-75
2023/03/14 06:29:20;;;;;;;3.72;1.23;;;;;;;9.11;100.00;98501.13;6291467;28;20325;-75
2023/03/14 06:32:23;;;;;;;6.80;1.75;;;;;;;9.26;100.00;98497.19;6291205;28;20045;-75
2023/03/14 06:35:24;;;;;;;3.78;1.45;;;;;;;9.27;100.00;98496.28;6274959;28;20041;-75
2023/03/14 06:38:26;;;;;;;3.53;1.42;;;;;;;9.37;100.00;98496.31;6274721;28;20044;-75
2023/03/14 06:41:27;;;;;;;4.07;1.52;;;;;;;9.35;100.00;98499.06;6274858;28;20049;-75
2023/03/14 06:44:28;;;;;;;3.10;1.45;;;;;;;9.39;100.00;98499.63;6274492;28;20055;-76
2023/03/14 06:47:31;;;;;;;8.07;1.90;;;;;;;9.38;100.00;98498.81;6288308;28;20045;-75
2023/03/14 06:50:32;;;;;;;3.83;1.33;;;;;;;9.46;100.00;98492.91;6293324;28;20047;-75
2023/03/14 06:53:34;;;;;;;4.13;1.75;;;;;;;9.47;100.00;98493.75;6299313;28;20060;-75
2023/03/14 06:56:35;;;;;;;3.33;1.92;;;;;;;9.42;100.00;98493.31;6294792;28;20455;-75
2023/03/14 06:59:37;;;;;;;6.78;2.28;;;;;;;9.40;100.00;98493.41;6299153;28;20045;-75
2023/03/14 07:02:39;;;;;;;4.88;1.17;;;;;;;9.35;100.00;98501.66;6297040;28;20056;-75
2023/03/14 07:05:41;;;;;;;5.88;1.83;;;;;;;9.36;100.00;98513.00;6278338;28;20095;-76
2023/03/14 07:08:42;;;;;;;1.13;0.63;;;;;;;9.32;100.00;98506.38;6284503;28;20460;-75
2023/03/14 07:11:44;;;;;;;3.72;1.10;;;;;;;9.29;100.00;98506.63;6287365;28;20055;-75
2023/03/14 07:14:45;;;;;;;2.67;1.08;;;;;;;9.28;100.00;98500.53;6288387;28;20049;-76
2023/03/14 07:17:48;;;;;;;3.55;1.00;;;;;;;9.25;100.00;98510.44;6288376;28;20119;-75
2023/03/14 07:20:50;;;;;;;4.32;1.40;;;;;;;9.33;100.00;98508.03;6288537;28;20360;-75
2023/03/14 07:23:51;;;;;;;2.55;0.90;;;;;;;9.35;100.00;98516.56;6297882;28;20044;-75
2023/03/14 07:26:53;;;;;;;3.55;1.05;;;;;;;9.34;100.00;98509.69;6299826;28;20040;-75
2023/03/14 07:29:54;;;;;;;0.50;0.50;;;;;;;9.34;100.00;98507.88;6303351;28;20051;-76
2023/03/14 07:32:57;;;;;;;3.90;0.80;;;;;;;9.32;100.00;98519.47;6303376;28;20055;-75
2023/03/14 07:35:59;;;;;;;2.72;0.63;;;;;;;9.35;100.00;98516.56;6292191;28;20056;-75
2023/03/14 07:39:00;;;;;;;1.95;0.50;;;;;;;9.36;100.00;98519.09;6287716;28;20052;-75
2023/03/14 07:42:02;;;;;;;1.20;0.60;;;;;;;9.38;100.00;98525.00;6293172;28;20048;-76
2023/03/14 07:45:03;;;;;;;5.57;0.80;;;;;;;9.37;100.00;98514.66;6297007;28;20037;-75
2023/03/14 07:48:06;;;;;;;2.58;0.90;;;;;;;9.39;100.00;98526.66;6281534;28;20353;-75
2023/03/14 07:51:08;;;;;;;2.25;0.70;;;;;;;9.40;100.00;98510.00;6288897;28;20041;-75
2023/03/14 07:54:09;;;;;;;0.40;0.40;;;;;;;9.37;100.00;98515.50;6298308;28;20044;-75
2023/03/14 07:57:11;;;;;;;0.30;0.30;;;;;;;9.39;100.00;98517.97;6302678;28;20364;-75
2023/03/14 08:00:13;;;;;;;0.60;0.40;;;;;;;9.44;100.00;98512.34;6287306;28;20041;-75
2023/03/14 08:03:17;;;;;;;1.88;0.40;;;;;;;9.49;100.00;98523.28;6278128;28;20098;-75
2023/03/14 08:06:18;;;;;;;3.15;0.47;;;;;;;9.52;100.00;98525.66;6277610;28;20045;-75
2023/03/14 08:09:20;;;;;;;0.85;0.40;;;;;;;9.71;100.00;98532.78;6277690;28;20650;-75
2023/03/14 08:12:21;;;;;;;0.35;0.35;;;;;;;9.78;100.00;98526.06;6294410;28;20045;-75
2023/03/14 08:15:22;;;;;;;0.80;0.30;;;;;;;9.83;100.00;98516.00;6302305;28;20055;-75
2023/03/14 08:18:25;;;;;;;2.22;0.57;;;;;;;9.89;100.00;98516.28;6302074;28;20048;-74
2023/03/14 08:21:26;;;;;;;0.50;0.50;;;;;;;9.90;100.00;98520.59;6295161;28;20045;-75
2023/03/14 08:24:28;;;;;;;0.75;0.40;;;;;;;9.98;100.00;98519.91;6302214;28;20433;-76
2023/03/14 08:27:29;;;;;;;4.43;0.65;;;;;;;10.00;100.00;98515.38;6299053;28;20048;-77
2023/03/14 08:30:31;;;;;;;1.48;0.38;;;;;;;10.11;100.00;98522.31;6286342;28;20064;-75
2023/03/14 08:33:33;;;;;;;0.47;0.40;;;;;;;10.16;100.00;98533.22;6289260;28;20056;-76
2023/03/14 08:36:35;;;;;;;3.30;0.40;;;;;;;10.14;100.00;98533.38;6283091;28;20045;-77
2023/03/14 08:39:36;;;;;;;2.28;0.47;;;;;;;10.18;100.00;98525.25;6278206;28;20049;-77
2023/03/14 08:42:38;;;;;;;2.70;0.50;;;;;;;10.10;100.00;98555.59;6285296;28;20383;-77
2023/03/14 08:45:40;;;;;;;0.30;0.30;;;;;;;10.11;100.00;98541.50;6276180;28;20053;-75
2023/03/14 08:48:42;;;;;;;0.90;0.40;;;;;;;10.07;100.00;98541.91;6279855;28;20049;-75
2023/03/14 08:51:44;;;;;;;2.72;0.50;;;;;;;9.99;100.00;98544.34;6281006;28;20341;-75
2023/03/14 08:54:45;;;;;;;0.55;0.40;;;;;;;9.99;100.00;98553.09;6283299;28;20045;-75
2023/03/14 08:57:47;;;;;;;0.85;0.60;;;;;;;10.06;100.00;98538.44;6284189;28;20553;-75
2023/03/14 09:00:48;;;;;;;0.88;0.30;;;;;;;10.08;100.00;98543.56;6284729;28;20044;-75
2023/03/14 09:03:51;;;;;;;0.93;0.40;;;;;;;10.10;100.00;98531.97;6280108;28;20345;-75
2023/03/14 09:06:52;;;;;;;1.92;0.40;;;;;;;10.11;100.00;98535.44;6277616;28;20048;-75
2023/03/14 09:09:53;;;;;;;0.43;0.43;;;;;;;10.05;100.00;98536.81;6282471;28;20379;-75
2023/03/14 09:12:55;;;;;;;0.65;0.43;;;;;;;10.05;100.00;98541.22;6284397;28;20052;-76
2023/03/14 09:15:57;;;;;;;0.30;0.30;;;;;;;10.10;100.00;98542.47;6276181;28;20045;-75
2023/03/14 09:18:59;;;;;;;1.17;0.60;;;;;;;10.06;100.00;98550.75;6284202;28;20052;-75
2023/03/14 09:22:01;;;;;;;0.50;0.50;;;;;;;10.02;100.00;98549.34;6291106;28;20104;-75
2023/03/14 09:25:02;;;;;;;1.92;0.40;;;;;;;9.92;100.00;98549.31;6300460;28;20051;-75
2023/03/14 09:28:04;;;;;;;0.88;0.70;;;;;;;9.92;100.00;98551.94;6287594;28;20437;-75
2023/03/14 09:31:08;;;;;;;1.98;0.55;;;;;;;9.89;100.00;98557.44;6276639;28;20052;-75
2023/03/14 09:34:10;;;;;;;1.40;0.50;;;;;;;9.88;100.00;98561.84;6283683;28;20127;-75
2023/03/14 09:37:12;;;;;;;0.50;0.50;;;;;;;9.87;100.00;98556.75;6280351;28;20368;-75
2023/03/14 09:40:14;;;;;;;1.73;0.93;;;;;;;9.81;100.00;98568.59;6285688;28;20041;-75
2023/03/14 09:43:17;;;;;;;0.65;0.60;;;;;;;9.90;100.00;98572.22;6283862;28;20055;-74
2023/03/14 09:46:19;;;;;;;1.98;0.70;;;;;;;10.01;100.00;98568.69;6274743;28;20052;-74
2023/03/14 09:49:25;;;;;;;2.00;1.00;;;;;;;9.97;100.00;98570.72;6275698;28;20358;-75
2023/03/14 09:52:31;;;;;;;0.98;0.60;;;;;;;9.99;100.00;98566.19;6279612;28;20052;-75
2023/03/14 09:55:33;;;;;;;0.98;0.90;;;;;;;10.03;100.00;98566.75;6281891;28;20053;-75
2023/03/14 09:58:37;;;;;;;2.03;1.33;;;;;;;10.05;100.00;98565.66;6280936;28;20045;-74
2023/03/14 10:01:38;;;;;;;1.35;1.00;;;;;;;10.06;100.00;98567.31;6282358;28;20400;-75
2023/03/14 10:04:44;;;;;;;0.95;0.80;;;;;;;10.05;100.00;98565.66;6291554;28;20052;-75
2023/03/14 10:07:45;;;;;;;3.08;1.20;;;;;;;10.02;100.00;98563.28;6288514;28;20076;-75
2023/03/14 10:10:47;;;;;;;1.25;1.15;;;;;;;9.80;100.00;98568.72;6276355;28;20052;-74
2023/03/14 10:13:50;;;;;;;1.35;1.25;;;;;;;9.66;100.00;98577.75;6283221;28;20330;-75
2023/03/14 10:16:52;;;;;;;2.38;1.55;;;;;;;9.51;100.00;98573.81;6279042;28;20055;-75
2023/03/14 10:19:56;;;;;;;2.03;1.83;;;;;;;9.47;100.00;98575.03;6284253;28;20430;-74
2023/03/14 10:22:58;;;;;;;3.50;2.15;;;;;;;9.49;100.00;98579.16;6274531;28;20041;-74
2023/03/14 10:26:04;;;;;;;2.20;1.63;;;;;;;9.49;100.00;98596.69;6279975;28;20053;-74
2023/03/14 10:29:11;;;;;;;0.88;0.88;;;;;;;8.88;100.00;98687.19;6276980;28;20051;-77
2023/03/14 10:32:20;;;;;;;0.80;0.63;;;;;;;7.21;100.00;98696.41;6274759;28;20060;-76
2023/03/14 10:35:24;;;;;;;3.08;0.32;;;;;;;6.33;100.00;98706.13;6291556;28;20051;-75
2023/03/14 10:38:28;;;;;;;0.40;0.20;;;;;;;6.11;100.00;98714.56;6292869;28;20120;-75
2023/03/14 10:41:33;;;;;;;1.25;0.20;;;;;;;5.85;100.00;98718.88;6290106;28;20045;-75
2023/03/14 10:44:36;;;;;;;0.10;0.10;;;;;;;5.77;100.00;98735.06;6283889;28;20048;-75
2023/03/14 10:47:49;;;;;;;0.45;0.13;;;;;;;5.71;100.00;98743.25;6296101;28;20049;-76
2023/03/14 10:50:56;;;;;;;0.30;0.25;;;;;;;5.47;100.00;98766.53;6284895;28;20060;-72
2023/03/14 10:54:00;;;;;;;0.93;0.40;;;;;;;5.38;100.00;98780.16;6290495;28;20345;-76
2023/03/14 10:57:05;;;;;;;1.27;0.50;;;;;;;5.35;100.00;98812.41;6295206;28;20075;-75
2023/03/14 11:00:15;;;;;;;2.10;0.65;;;;;;;5.15;100.00;98822.44;6296836;28;20174;-73
2023/03/14 11:03:19;;;;;;;0.82;0.82;;;;;;;4.84;100.00;98834.72;6287564;28;20048;-75
2023/03/14 11:06:30;;;;;;;0.70;0.63;;;;;;;4.72;100.00;98859.69;6278231;28;20049;-72
2023/03/14 11:09:41;;;;;;;1.02;0.77;;;;;;;4.60;100.00;98880.41;6278515;28;20361;-75
2023/03/14 11:12:52;;;;;;;0.60;0.60;;;;;;;4.44;100.00;98916.88;6293686;28;20452;-75
2023/03/14 11:16:02;;;;;;;2.05;0.43;;;;;;;4.36;100.00;98906.94;6301922;28;20037;-75
2023/03/14 11:19:21;;;;;;;0.45;0.30;;;;;;;4.14;100.00;98914.28;6302712;28;20052;-74
2023/03/14 11:22:34;;;;;;;0.40;0.37;;;;;;;3.96;100.00;98926.53;6279004;28;20501;-75
2023/03/14 11:25:45;;;;;;;4.30;0.80;;;;;;;3.93;100.00;98944.88;6288812;28;20045;-76
2023/03/14 11:28:49;;;;;;;1.17;0.90;;;;;;;3.88;100.00;98946.91;6286941;28;20132;-76
2023/03/14 11:31:55;;;;;;;0.45;0.40;;;;;;;3.76;100.00;98943.19;6280392;28;20049;-77
2023/03/14 11:34:59;;;;;;;1.45;0.60;;;;;;;3.81;100.00;98962.84;6287203;28;20041;-75
2023/03/14 11:38:13;;;;;;;1.08;0.47;;;;;;;3.85;100.00;98989.47;6286154;28;20036;-76
2023/03/14 11:41:18;;;;;;;0.40;0.40;;;;;;;3.94;100.00;98996.75;6278881;28;20052;-77
2023/03/14 11:44:24;;;;;;;0.90;0.45;;;;;;;3.99;100.00;99009.50;6286521;28;20041;-76
2023/03/14 11:47:30;;;;;;;0.55;0.55;;;;;;;3.99;100.00;99033.72;6291995;28;20048;-75
2023/03/14 11:50:33;;;;;;;0.10;0.10;;;;;;;4.00;100.00;99042.41;6287914;28;20453;-76
2023/03/14 11:53:48;;;;;;;0.47;0.30;;;;;;;3.90;100.00;99068.00;6285053;28;20060;-72
2023/03/14 11:56:53;;;;;;;1.35;0.28;;;;;;;3.93;100.00;99077.41;6288683;28;20416;-75
2023/03/14 12:00:03;;;;;;;0.20;0.20;;;;;;;3.99;100.00;99066.69;6290903;28;20048;-75
2023/03/14 12:03:13;;;;;;;0.60;0.40;;;;;;;3.88;100.00;99064.66;6277328;28;20049;-76
2023/03/14 12:06:21;;;;;;;1.92;0.57;;;;;;;4.02;100.00;99089.91;6293468;28;20055;-78
2023/03/14 12:09:24;;;;;;;5.80;1.90;;;;;;;3.97;100.00;99104.91;6293266;28;20045;-77
2023/03/14 12:12:30;;;;;;;4.90;1.10;;;;;;;4.12;100.00;99111.06;6302198;28;20048;-77
2023/03/14 12:15:34;;;;;;;4.32;0.40;;;;;;;4.24;100.00;99139.00;6288677;28;20049;-77
2023/03/14 12:18:38;;;;;;;0.25;0.20;;;;;;;4.27;100.00;99155.31;6281471;28;20048;-74
2023/03/14 12:21:51;;;;;;;2.13;0.68;;;;;;;4.33;100.00;99170.56;6288833;28;20095;-76
2023/03/14 12:24:57;;;;;;;4.45;0.57;;;;;;;4.43;100.00;99188.28;6285081;28;20045;-76
2023/03/14 12:28:18;;;;;;;4.63;0.75;;;;;;;4.32;100.00;99188.84;6285082;28;20045;-76
2023/03/14 12:31:42;;;;;;;3.10;0.45;;;;;;;4.30;100.00;99190.69;6278753;28;20047;-77
2023/03/14 12:34:45;;;;;;;2.58;0.60;;;;;;;4.41;100.00;99192.75;6280074;28;20057;-76
2023/03/14 12:37:52;;;;;;;1.27;0.40;;;;;;;4.40;100.00;99199.66;6288304;28;20380;-75
2023/03/14 12:41:01;;;;;;;3.40;1.02;;;;;;;4.52;100.00;99198.19;6297869;28;20127;-77
2023/03/14 12:44:40;;;;;;;5.28;0.70;;;;;;;4.64;100.00;99217.53;6302046;28;20044;-76
2023/03/14 12:47:52;;;;;;;1.27;0.60;;;;;;;4.68;100.00;99214.69;6278410;28;21562;-76
2023/03/14 12:50:56;;;;;;;6.40;0.80;;;;;;;4.55;100.00;99229.25;6276913;28;20044;-77
2023/03/14 12:54:19;;;;;;;4.45;0.55;;;;;;;4.46;100.00;99243.59;6284232;28;20051;-76
2023/03/14 12:57:28;;;;;;;9.13;1.40;;;;;;;4.46;100.00;99243.59;6284200;28;20045;-75
2023/03/14 13:00:33;;;;;;;5.15;0.82;;;;;;;4.70;100.00;99262.25;6277746;28;20441;-70
2023/03/14 13:03:43;;;;;;;3.67;0.63;;;;;;;4.84;100.00;99282.34;6284635;28;20071;-77
2023/03/14 13:06:53;;;;;;;5.70;0.43;;;;;;;4.88;100.00;99294.28;6279464;28;20047;-77
2023/03/14 13:09:59;;;;;;;4.30;0.80;;;;;;;4.90;100.00;99302.00;6300729;28;20103;-75
2023/03/14 13:13:16;;;;;;;9.55;1.27;;;;;;;4.96;100.00;99297.31;6294060;28;20452;-75
2023/03/14 13:16:20;;;;;;;4.30;0.95;;;;;;;5.11;100.00;99305.22;6284101;28;20425;-77
2023/03/14 13:19:26;;;;;;;5.30;1.00;;;;;;;5.13;100.00;99316.38;6291367;28;20052;-75
2023/03/14 13:22:29;;;;;;;2.25;0.65;;;;;;;5.24;100.00;99324.47;6284199;28;20053;-75
2023/03/14 13:25:34;;;;;;;8.77;1.17;;;;;;;5.39;100.00;99328.81;6284595;28;20051;-75
2023/03/14 13:28:36;;;;;;;19.08;1.80;;;;;;;5.35;100.00;99350.75;6276564;28;20353;-75
2023/03/14 13:31:45;;;;;;;5.97;1.17;;;;;;;5.26;100.00;99353.84;6284069;28;20044;-75
2023/03/14 13:34:48;;;;;;;12.68;1.48;;;;;;;5.21;100.00;99376.69;6274969;28;20365;-77
2023/03/14 13:37:55;;;;;;;3.20;0.80;;;;;;;5.24;100.00;99387.81;6272871;28;20053;-76
2023/03/14 13:40:59;;;;;;;16.50;0.95;;;;;;;5.27;100.00;99397.22;6280674;28;20047;-76
2023/03/14 13:44:07;;;;;;;3.50;0.80;;;;;;;5.31;100.00;99410.00;6278060;28;20040;-75
2023/03/14 13:47:15;;;;;;;4.68;0.98;;;;;;;5.27;100.00;99416.31;6287128;28;20044;-76
2023/03/14 13:50:18;;;;;;;1.70;0.68;;;;;;;5.19;100.00;99434.09;6279168;28;20045;-75
2023/03/14 13:53:20;;;;;;;6.43;0.98;;;;;;;5.13;100.00;99431.78;6291329;28;20127;-73
2023/03/14 13:56:22;;;;;;;10.35;2.35;;;;;;;5.17;100.00;99443.72;6273994;28;20048;-73
2023/03/14 13:59:26;;;;;;;6.03;1.10;;;;;;;5.22;100.00;99456.50;6283915;28;20055;-73
2023/03/14 14:02:28;;;;;;;6.40;1.27;;;;;;;5.21;100.00;99466.09;6276121;28;20140;-76
2023/03/14 14:05:31;;;;;;;4.53;0.73;;;;;;;5.30;100.00;99481.22;6278142;28;20049;-76
2023/03/14 14:08:34;;;;;;;10.07;0.90;;;;;;;5.25;100.00;99491.06;6275952;28;20056;-76
2023/03/14 14:11:42;;;;;;;3.05;0.40;;;;;;;5.31;100.00;99500.31;6280713;28;20041;-75
2023/03/14 14:14:49;;;;;;;9.48;1.08;;;;;;;5.32;100.00;99517.66;6294351;28;20040;-76
2023/03/14 14:17:53;;;;;;;6.63;0.60;;;;;;;5.36;100.00;99516.56;6295817;28;20052;-76
2023/03/14 14:20:55;;;;;;;2.38;0.73;;;;;;;5.35;100.00;99525.28;6275087;28;20460;-75